Time;durP1;ratioP1;P1;durP2;ratioP2;P2;SDS_P1;SDS_P2;PMS_P1;PMS_P2;Temp;Humidity;BMP_temperature;BMP_pressure;BME280_temperature;BME280_humidity;BME280_pressure;Samples;Min_cycle;Max_cycle;Signal;HPM_P1;HPM_P2
2022/01/11 00:00:14;;;;;;;239.70;24.85;;;;;;;0.93;68.35;101326.69;10467359;28;20385;-65
2022/01/11 00:05:25;;;;;;;346.05;30.00;;;;;;;0.85;68.43;101331.81;10466882;28;20068;-65
2022/01/11 00:10:32;;;;;;;161.10;22.10;;;;;;;0.63;69.32;101335.19;10466004;28;20049;-65
2022/01/11 00:15:34;;;;;;;167.38;22.88;;;;;;;0.75;69.31;101337.78;10465603;28;20139;-65
2022/01/11 00:20:38;;;;;;;226.40;23.88;;;;;;;0.71;69.10;101340.38;10467351;28;20090;-65
2022/01/11 00:25:43;;;;;;;218.30;24.10;;;;;;;0.78;69.05;101348.13;10448218;28;20134;-65
2022/01/11 00:30:47;;;;;;;191.55;23.90;;;;;;;0.65;68.90;101360.97;10452286;28;20056;-65
2022/01/11 00:35:59;;;;;;;191.73;22.20;;;;;;;0.67;68.75;101360.09;10465604;28;20529;-65
2022/01/11 00:41:05;;;;;;;137.45;21.63;;;;;;;0.67;68.92;101354.94;10465059;28;20114;-65
2022/01/11 00:46:09;;;;;;;160.00;21.67;;;;;;;0.68;68.39;101364.41;10461923;28;20098;-65
2022/01/11 00:51:11;;;;;;;116.53;20.73;;;;;;;0.71;68.57;101366.97;10465299;28;20658;-66
2022/01/11 00:56:13;;;;;;;149.60;22.58;;;;;;;0.73;68.58;101365.25;10465813;28;20063;-65
2022/01/11 01:01:15;;;;;;;151.05;23.13;;;;;;;0.85;68.38;101370.44;10446604;28;20060;-65
2022/01/11 01:06:17;;;;;;;113.70;20.33;;;;;;;0.89;68.43;101376.47;10465471;28;20048;-65
2022/01/11 01:11:18;;;;;;;119.82;20.90;;;;;;;0.87;68.46;101378.19;10463556;28;20124;-65
2022/01/11 01:16:21;;;;;;;284.63;26.13;;;;;;;0.94;68.27;101375.63;10462977;28;20103;-65
2022/01/11 01:21:23;;;;;;;283.13;25.67;;;;;;;1.00;68.04;101382.50;10464488;28;20556;-64
2022/01/11 01:26:25;;;;;;;364.27;26.25;;;;;;;0.99;68.07;101379.06;10464998;28;20074;-65
2022/01/11 01:31:28;;;;;;;394.50;27.75;;;;;;;0.92;68.53;101377.34;10446922;28;20060;-65
2022/01/11 01:36:30;;;;;;;476.23;29.98;;;;;;;1.00;68.39;101385.94;10464383;28;20059;-65
2022/01/11 01:41:32;;;;;;;469.00;30.15;;;;;;;0.96;68.66;101394.50;10464723;28;20056;-65
2022/01/11 01:46:34;;;;;;;506.55;30.05;;;;;;;0.86;68.39;101392.78;10464477;28;20143;-65
2022/01/11 01:51:36;;;;;;;414.65;27.25;;;;;;;0.77;68.75;101400.47;10464464;28;20173;-65
2022/01/11 01:56:38;;;;;;;529.80;31.33;;;;;;;0.64;69.04;101403.84;10464166;28;20055;-65
2022/01/11 02:01:46;;;;;;;365.73;28.88;;;;;;;0.68;69.16;101408.16;10463845;28;20054;-65
2022/01/11 02:06:48;;;;;;;425.52;28.30;;;;;;;0.75;68.99;101404.75;10464840;28;20056;-65
2022/01/11 02:11:50;;;;;;;455.75;28.83;;;;;;;0.73;68.76;101411.59;10463986;28;20063;-64
2022/01/11 02:16:51;;;;;;;383.65;27.77;;;;;;;0.84;68.98;101412.50;10461452;28;20147;-64
2022/01/11 02:21:53;;;;;;;439.52;28.90;;;;;;;0.94;68.80;101403.97;10468867;28;20190;-65
2022/01/11 02:26:55;;;;;;;316.95;25.27;;;;;;;1.02;68.67;101398.81;10468726;28;20048;-65
2022/01/11 02:31:57;;;;;;;566.58;31.98;;;;;;;1.00;68.40;101405.69;10470504;28;20056;-65
2022/01/11 02:36:59;;;;;;;546.20;30.10;;;;;;;0.85;68.59;101400.50;10470820;28;20103;-65
2022/01/11 02:42:02;;;;;;;471.25;29.13;;;;;;;0.71;68.31;101400.44;10470119;28;20060;-65
2022/01/11 02:47:05;;;;;;;296.65;26.63;;;;;;;0.53;69.09;101414.09;10469641;28;21057;-64
2022/01/11 02:52:07;;;;;;;519.40;29.40;;;;;;;0.74;68.86;101408.19;10470128;28;20565;-64
2022/01/11 02:57:08;;;;;;;466.98;31.45;;;;;;;0.94;68.90;101414.25;10470185;28;20396;-64
2022/01/11 03:02:10;;;;;;;313.38;27.58;;;;;;;1.00;68.68;101410.81;10472190;28;20060;-64
2022/01/11 03:07:21;;;;;;;332.88;26.85;;;;;;;1.07;68.50;101423.75;10477325;28;20056;-65
2022/01/11 03:12:23;;;;;;;533.83;31.63;;;;;;;0.94;68.44;101429.72;10477013;28;20141;-65
2022/01/11 03:17:26;;;;;;;563.08;32.53;;;;;;;1.07;68.55;101439.22;10474618;28;21032;-64
2022/01/11 03:22:27;;;;;;;334.35;24.70;;;;;;;1.05;68.53;101432.31;10476408;28;20485;-65
2022/01/11 03:27:29;;;;;;;350.88;25.52;;;;;;;0.91;68.62;101445.13;10476866;28;20062;-65
2022/01/11 03:32:31;;;;;;;284.30;24.17;;;;;;;0.95;68.57;101444.28;10474643;28;20054;-64
2022/01/11 03:37:39;;;;;;;596.13;31.05;;;;;;;0.87;68.26;101451.13;10475962;28;20451;-64
2022/01/11 03:42:41;;;;;;;410.75;25.88;;;;;;;0.52;68.88;101463.00;10476253;28;20074;-64
2022/01/11 03:47:43;;;;;;;264.95;21.95;;;;;;;0.40;69.31;101463.78;10475472;28;20159;-65
2022/01/11 03:52:45;;;;;;;230.23;23.83;;;;;;;0.54;69.79;101469.88;10475454;28;20059;-64
2022/01/11 03:57:49;;;;;;;485.75;28.77;;;;;;;0.66;69.13;101468.22;10470667;28;20140;-64
2022/01/11 04:02:50;;;;;;;559.30;29.85;;;;;;;0.54;68.84;101464.72;10449640;28;20139;-64
2022/01/11 04:07:53;;;;;;;630.65;26.45;;;;;;;0.43;68.93;101466.38;10436149;28;20060;-64
2022/01/11 04:12:55;;;;;;;433.52;22.48;;;;;;;0.28;69.25;101473.16;10466431;28;20095;-64
2022/01/11 04:17:56;;;;;;;336.42;23.23;;;;;;;0.29;69.21;101480.03;10447996;28;20136;-64
2022/01/11 04:22:58;;;;;;;662.20;29.38;;;;;;;0.17;69.16;101473.09;10463315;28;20181;-64
2022/01/11 04:28:01;;;;;;;656.20;29.38;;;;;;;0.20;69.71;101473.09;10464707;28;20129;-65
2022/01/11 04:33:04;;;;;;;561.40;28.45;;;;;;;0.46;69.40;101474.13;10466608;28;20424;-64
2022/01/11 04:38:06;;;;;;;283.55;22.35;;;;;;;0.55;69.04;101481.03;10467778;28;20063;-64
2022/01/11 04:43:08;;;;;;;122.82;16.30;;;;;;;0.55;69.51;101483.59;10466891;28;20476;-65
2022/01/11 04:48:16;;;;;;;379.58;22.27;;;;;;;0.60;69.13;101483.63;10466437;28;20501;-64
2022/01/11 04:53:17;;;;;;;484.25;23.83;;;;;;;0.38;69.00;101488.66;10447928;28;20175;-64
2022/01/11 04:58:19;;;;;;;551.53;25.92;;;;;;;0.03;69.11;101499.56;10467101;28;20123;-64
2022/01/11 05:03:21;;;;;;;306.75;21.00;;;;;;;-0.05;69.49;101496.06;10465778;28;20122;-64
2022/01/11 05:08:23;;;;;;;119.85;16.17;;;;;;;-0.06;69.66;101505.47;10466794;28;20493;-65
2022/01/11 05:13:25;;;;;;;246.50;18.67;;;;;;;0.12;69.48;101502.19;10465270;28;20064;-64
2022/01/11 05:18:29;;;;;;;115.93;15.63;;;;;;;0.04;69.63;101501.25;10463839;28;20137;-65
2022/01/11 05:23:32;;;;;;;295.38;20.00;;;;;;;0.11;69.14;101501.34;10465835;28;20465;-64
2022/01/11 05:28:34;;;;;;;317.70;20.10;;;;;;;-0.32;69.25;101500.13;10447461;28;20231;-64
2022/01/11 05:33:36;;;;;;;240.35;18.58;;;;;;;-0.32;69.33;101501.81;10466216;28;20069;-64
2022/01/11 05:38:38;;;;;;;196.85;16.52;;;;;;;-0.43;69.43;101501.72;10466157;28;20056;-64
2022/01/11 05:43:40;;;;;;;230.75;19.90;;;;;;;-0.21;69.81;101513.09;10465732;28;20467;-64
2022/01/11 05:48:44;;;;;;;118.47;14.40;;;;;;;-0.16;69.22;101515.66;10466044;28;20049;-64
2022/01/11 05:53:46;;;;;;;167.45;14.60;;;;;;;-0.17;69.27;101517.41;10464205;28;20059;-64
2022/01/11 05:58:48;;;;;;;112.35;14.63;;;;;;;-0.36;69.59;101520.63;10473715;28;20140;-64
2022/01/11 06:03:50;;;;;;;206.43;15.55;;;;;;;-0.37;69.29;101524.03;10454965;28;20052;-64
2022/01/11 06:08:52;;;;;;;266.55;19.20;;;;;;;-0.56;69.30;101530.72;10472966;28;20047;-64
2022/01/11 06:13:53;;;;;;;124.97;14.43;;;;;;;-0.57;69.68;101533.25;10471859;28;20589;-64
2022/01/11 06:18:55;;;;;;;173.18;13.70;;;;;;;-0.70;69.63;101532.28;10453078;28;20123;-64
2022/01/11 06:23:57;;;;;;;219.55;15.48;;;;;;;-0.70;69.79;101542.56;10470382;28;20052;-64
2022/01/11 06:29:01;;;;;;;303.67;16.38;;;;;;;-0.45;69.70;101551.38;10454368;28;20052;-64
2022/01/11 06:34:03;;;;;;;313.92;18.65;;;;;;;-0.54;69.46;101548.72;10453059;28;20133;-64
2022/01/11 06:39:05;;;;;;;331.75;19.70;;;;;;;-0.56;69.58;101552.97;10471248;28;20048;-64
2022/01/11 06:44:07;;;;;;;146.50;15.13;;;;;;;-0.55;69.76;101554.69;10472049;28;20078;-64
2022/01/11 06:49:09;;;;;;;230.30;15.45;;;;;;;-0.40;69.11;101558.31;10471197;28;20048;-64
2022/01/11 06:54:11;;;;;;;937.03;46.42;;;;;;;-0.78;69.58;101563.84;10470003;28;20103;-64
2022/01/11 06:59:13;;;;;;;328.83;20.00;;;;;;;-0.57;69.93;101570.09;10470665;28;20123;-64
2022/01/11 07:04:14;;;;;;;476.17;21.70;;;;;;;-0.43;69.67;101568.53;10469921;28;20412;-64
2022/01/11 07:09:16;;;;;;;302.88;19.35;;;;;;;-0.28;69.58;101579.81;10469896;28;20070;-64
2022/01/11 07:14:18;;;;;;;403.30;21.95;;;;;;;-0.28;69.31;101579.81;10469505;28;20136;-64
2022/01/11 07:19:20;;;;;;;324.95;19.35;;;;;;;-0.29;69.59;101583.25;10451204;28;20125;-64
2022/01/11 07:24:23;;;;;;;363.60;19.95;;;;;;;-0.33;69.38;101582.34;10467458;28;20541;-64
2022/01/11 07:29:25;;;;;;;382.50;20.08;;;;;;;-0.22;69.74;101597.88;10469128;28;20051;-64
2022/01/11 07:34:27;;;;;;;504.35;25.52;;;;;;;-0.04;69.49;101609.22;10469320;28;20167;-64
2022/01/11 07:39:29;;;;;;;427.92;19.50;;;;;;;-0.01;69.10;101613.53;10469113;28;20049;-64
2022/01/11 07:44:30;;;;;;;588.60;27.15;;;;;;;-0.40;69.60;101614.84;10458891;28;20049;-64
2022/01/11 07:49:32;;;;;;;609.28;24.05;;;;;;;-0.44;69.61;101617.34;10447727;28;20052;-64
2022/01/11 07:54:34;;;;;;;556.03;23.15;;;;;;;-0.47;69.55;101633.59;10467986;28;20230;-64
2022/01/11 07:59:36;;;;;;;415.17;21.77;;;;;;;-0.43;69.94;101629.34;10469058;28;20136;-64
2022/01/11 08:04:54;;;;;;;326.38;19.77;;;;;;;-0.33;69.89;101634.63;10467954;28;20048;-64
2022/01/11 08:09:56;;;;;;;373.27;23.05;;;;;;;-0.36;69.71;101638.88;10467370;28;20072;-64
2022/01/11 08:14:58;;;;;;;240.57;19.60;;;;;;;-0.19;69.71;101650.22;10449669;28;20052;-64
2022/01/11 08:20:00;;;;;;;491.23;27.38;;;;;;;-0.16;69.73;101657.09;10466546;28;20050;-64
2022/01/11 08:25:03;;;;;;;602.20;27.75;;;;;;;-0.02;69.30;101661.53;10465057;28;20084;-64
2022/01/11 08:30:06;;;;;;;421.50;22.35;;;;;;;-0.02;69.37;101663.22;10449799;28;20052;-64
2022/01/11 08:35:08;;;;;;;418.38;23.17;;;;;;;0.14;69.15;101663.41;10467450;28;20155;-64
2022/01/11 08:40:12;;;;;;;188.25;18.55;;;;;;;0.21;69.11;101666.91;10448131;28;20049;-64
2022/01/11 08:45:14;;;;;;;255.38;20.30;;;;;;;0.19;68.83;101673.75;10466600;28;20149;-64
2022/01/11 08:50:16;;;;;;;236.95;19.13;;;;;;;0.16;69.02;101678.88;10463922;28;20088;-64
2022/01/11 08:55:18;;;;;;;180.13;17.00;;;;;;;0.19;69.11;101687.50;10464598;28;20057;-64
2022/01/11 09:00:20;;;;;;;297.40;21.70;;;;;;;0.30;68.87;101685.03;10449113;28;20048;-64
2022/01/11 09:05:23;;;;;;;153.52;19.25;;;;;;;0.32;68.82;101691.06;10465770;28;20056;-64
2022/01/11 09:10:25;;;;;;;139.35;18.65;;;;;;;0.29;68.92;101688.44;10447875;28;20056;-64
2022/01/11 09:15:28;;;;;;;130.25;16.73;;;;;;;0.38;68.77;101684.22;10466030;28;20066;-64
2022/01/11 09:20:30;;;;;;;260.13;19.15;;;;;;;0.19;69.02;101681.47;10466196;28;20053;-64
2022/01/11 09:25:33;;;;;;;510.70;26.17;;;;;;;0.13;68.80;101697.72;10463638;28;20052;-64
2022/01/11 09:30:36;;;;;;;291.98;20.38;;;;;;;0.26;68.53;101698.72;10451788;28;20048;-64
2022/01/11 09:35:38;;;;;;;300.85;21.27;;;;;;;0.36;68.37;101698.78;10456463;28;20250;-64
2022/01/11 09:40:40;;;;;;;239.05;19.02;;;;;;;0.58;68.26;101699.00;10473221;28;20045;-64
2022/01/11 09:45:42;;;;;;;346.40;23.10;;;;;;;0.71;68.02;101696.53;10473800;28;20171;-64
2022/01/11 09:50:44;;;;;;;233.93;19.75;;;;;;;0.71;67.83;101699.13;10472883;28;20108;-64
2022/01/11 09:55:47;;;;;;;114.22;17.65;;;;;;;0.76;68.04;101694.88;10472427;28;20143;-64
2022/01/11 10:00:50;;;;;;;190.77;21.10;;;;;;;0.78;67.55;101698.34;10472896;28;20059;-64
2022/01/11 10:05:52;;;;;;;429.10;30.88;;;;;;;0.93;67.32;101697.59;10449430;28;20516;-64
2022/01/11 10:10:57;;;;;;;106.05;17.50;;;;;;;1.02;67.30;101695.06;10470944;28;20132;-64
2022/01/11 10:16:26;;;;;;;148.57;17.27;;;;;;;0.96;66.49;101702.75;10465509;28;20063;-64
2022/01/11 10:21:36;;;;;;;82.60;17.70;;;;;;;1.15;66.76;101704.63;10471935;28;20056;-64
2022/01/11 10:26:45;;;;;;;251.18;21.80;;;;;;;1.14;66.12;101693.44;10469396;28;20544;-64
2022/01/11 10:31:48;;;;;;;160.98;19.27;;;;;;;0.95;67.01;101693.31;10446389;28;20447;-64
2022/01/11 10:36:50;;;;;;;152.13;18.35;;;;;;;0.94;66.52;101692.44;10470780;28;20048;-64
2022/01/11 10:41:53;;;;;;;214.82;20.98;;;;;;;0.69;66.56;101693.09;10470650;28;20500;-64
2022/01/11 10:46:55;;;;;;;125.03;14.82;;;;;;;0.86;66.72;101680.34;10470983;28;20388;-64
2022/01/11 10:52:21;;;;;;;41.97;12.15;;;;;;;0.97;65.97;101684.72;10449815;28;20063;-65
2022/01/11 10:57:32;;;;;;;122.82;14.30;;;;;;;0.89;65.94;101690.69;10453357;28;20155;-63
2022/01/11 11:02:34;;;;;;;178.93;18.10;;;;;;;0.90;65.79;101688.13;10470670;28;20057;-62
2022/01/11 11:07:37;;;;;;;39.92;12.80;;;;;;;0.89;66.29;101685.53;10470002;28;20563;-62
2022/01/11 11:12:39;;;;;;;136.73;15.77;;;;;;;0.92;65.76;101681.25;10450272;28;20087;-63
2022/01/11 11:17:40;;;;;;;141.10;14.27;;;;;;;0.57;66.14;101677.53;10469045;28;20063;-62
2022/01/11 11:22:42;;;;;;;57.70;12.00;;;;;;;0.64;66.55;101673.31;10469866;28;20862;-63
2022/01/11 11:27:44;;;;;;;51.90;12.23;;;;;;;0.70;66.62;101663.94;10464825;28;20052;-63
2022/01/11 11:32:47;;;;;;;62.45;12.05;;;;;;;0.92;66.14;101664.94;10449058;28;20071;-62
2022/01/11 11:38:09;;;;;;;75.78;11.40;;;;;;;0.81;65.18;101664.84;10467911;28;20145;-62
2022/01/11 11:43:12;;;;;;;41.85;11.57;;;;;;;0.87;65.99;101664.91;10465111;28;20558;-63
2022/01/11 11:48:20;;;;;;;57.15;11.77;;;;;;;0.86;65.68;101663.19;10450337;28;20131;-63
2022/01/11 11:53:30;;;;;;;72.07;11.80;;;;;;;0.75;66.00;101663.97;10468094;28;20056;-62
2022/01/11 11:58:41;;;;;;;47.08;12.70;;;;;;;0.58;65.88;101666.41;10467015;28;20136;-62
2022/01/11 12:03:44;;;;;;;79.68;13.32;;;;;;;0.65;66.02;101657.03;10466682;28;20091;-62
2022/01/11 12:09:00;;;;;;;73.60;14.60;;;;;;;0.90;66.34;101657.22;10444471;28;20516;-62
2022/01/11 12:14:04;;;;;;;77.70;13.93;;;;;;;1.25;65.90;101662.59;10466565;28;20186;-63
2022/01/11 12:19:14;;;;;;;27.40;11.35;;;;;;;1.28;64.86;101666.03;10466586;28;20817;-63
2022/01/11 12:24:37;;;;;;;40.20;14.80;;;;;;;1.08;65.67;101654.75;10463129;28;20052;-63
2022/01/11 12:30:05;;;;;;;61.55;15.20;;;;;;;1.30;64.89;101669.47;10459936;28;20616;-62
2022/01/11 12:35:10;;;;;;;28.00;13.98;;;;;;;1.39;65.63;101655.78;10465046;28;20110;-63
2022/01/11 12:40:21;;;;;;;41.08;16.00;;;;;;;1.50;65.42;101655.84;10444578;28;20511;-62
2022/01/11 12:46:01;;;;;;;39.72;14.63;;;;;;;1.23;65.23;101657.44;10465166;28;20056;-63
2022/01/11 12:51:03;;;;;;;41.75;16.20;;;;;;;1.33;65.59;101663.50;10464587;28;20048;-62
2022/01/11 12:56:05;;;;;;;187.57;23.42;;;;;;;1.04;65.38;101660.75;10456854;28;20096;-62
2022/01/11 13:01:18;;;;;;;137.15;23.75;;;;;;;0.72;66.21;101662.22;10464949;28;20056;-62
2022/01/11 13:06:21;;;;;;;44.45;16.95;;;;;;;0.99;66.81;101661.56;10465340;28;20171;-62
2022/01/11 13:11:25;;;;;;;96.45;19.27;;;;;;;1.19;65.88;101652.25;10463653;28;20177;-63
2022/01/11 13:16:27;;;;;;;60.28;20.30;;;;;;;1.09;65.96;101643.63;10459045;28;20056;-62
2022/01/11 13:21:31;;;;;;;44.35;17.85;;;;;;;1.15;66.14;101641.06;10463288;28;20143;-62
2022/01/11 13:26:33;;;;;;;43.50;17.50;;;;;;;1.19;66.26;101635.06;10464152;28;20048;-62
2022/01/11 13:31:37;;;;;;;60.55;18.05;;;;;;;1.05;65.99;101644.44;10460621;28;20064;-62
2022/01/11 13:36:45;;;;;;;145.15;20.65;;;;;;;1.04;66.04;101645.28;10447209;28;20459;-62
2022/01/11 13:41:50;;;;;;;175.15;18.85;;;;;;;0.85;65.84;101648.56;10448354;28;20416;-62
2022/01/11 13:46:54;;;;;;;135.18;20.55;;;;;;;0.69;66.29;101651.91;10447902;28;20605;-63
2022/01/11 13:51:59;;;;;;;109.50;18.23;;;;;;;0.47;66.49;101647.44;10460940;28;20193;-62
2022/01/11 13:57:03;;;;;;;81.43;18.17;;;;;;;0.46;66.79;101650.88;10462801;28;20151;-62
2022/01/11 14:02:17;;;;;;;162.05;18.73;;;;;;;0.42;66.87;101654.25;10465071;28;20067;-63
2022/01/11 14:07:29;;;;;;;97.85;19.27;;;;;;;0.40;67.05;101651.66;10464284;28;20106;-63
2022/01/11 14:12:44;;;;;;;203.45;18.73;;;;;;;0.17;67.31;101652.31;10464759;28;20092;-63
2022/01/11 14:17:56;;;;;;;112.18;18.27;;;;;;;0.23;67.54;101660.06;10469671;28;20140;-63
2022/01/11 14:23:13;;;;;;;144.27;23.02;;;;;;;0.42;67.46;101651.69;10454200;28;20127;-63
2022/01/11 14:28:27;;;;;;;123.07;20.63;;;;;;;0.68;67.22;101652.75;10471703;28;20057;-62
2022/01/11 14:33:34;;;;;;;49.00;17.92;;;;;;;1.01;67.00;101655.59;10470081;28;20056;-63
2022/01/11 14:38:49;;;;;;;38.15;15.57;;;;;;;1.09;66.28;101651.34;10471231;28;20139;-63
2022/01/11 14:44:10;;;;;;;32.22;14.18;;;;;;;0.97;66.59;101652.97;10469274;28;20496;-63
2022/01/11 14:49:16;;;;;;;21.13;11.83;;;;;;;0.97;67.02;101655.53;10454276;28;20415;-62
2022/01/11 14:54:21;;;;;;;38.72;15.80;;;;;;;0.97;66.78;101664.13;10470733;28;20498;-63
2022/01/11 14:59:26;;;;;;;49.90;17.35;;;;;;;0.84;66.65;101662.31;10470405;28;20044;-63
2022/01/11 15:04:31;;;;;;;42.60;15.80;;;;;;;0.90;66.99;101670.09;10466058;28;20053;-62
2022/01/11 15:09:38;;;;;;;62.97;15.55;;;;;;;0.86;66.71;101676.06;10471706;28;20122;-63
2022/01/11 15:14:41;;;;;;;34.75;15.85;;;;;;;0.74;67.04;101678.56;10470455;28;20048;-63
2022/01/11 15:19:43;;;;;;;74.70;16.38;;;;;;;0.73;66.95;101679.38;10469536;28;20490;-63
2022/01/11 15:24:46;;;;;;;121.63;17.95;;;;;;;0.66;66.73;101676.75;10468784;28;20050;-62
2022/01/11 15:29:48;;;;;;;334.98;26.52;;;;;;;0.66;67.01;101680.22;10467355;28;20063;-62
2022/01/11 15:34:49;;;;;;;412.50;28.42;;;;;;;0.51;66.88;101693.81;10466755;28;20810;-63
2022/01/11 15:39:51;;;;;;;260.95;24.33;;;;;;;0.42;67.30;101687.72;10469490;28;20045;-62
2022/01/11 15:44:53;;;;;;;316.55;23.98;;;;;;;0.27;67.94;101698.72;10469366;28;20403;-62
2022/01/11 15:49:54;;;;;;;155.75;22.85;;;;;;;0.29;68.00;101701.31;10468264;28;20053;-63
2022/01/11 15:54:56;;;;;;;140.70;20.77;;;;;;;0.44;67.85;101701.47;10468672;28;20056;-63
2022/01/11 15:59:58;;;;;;;203.43;23.95;;;;;;;0.36;67.49;101708.25;10468122;28;20059;-63
2022/01/11 16:05:01;;;;;;;543.85;29.63;;;;;;;0.12;68.40;101713.13;10454914;28;20148;-68
2022/01/11 16:10:03;;;;;;;474.60;29.23;;;;;;;0.22;67.78;101708.09;10462937;28;20135;-67
2022/01/11 16:15:05;;;;;;;595.03;29.63;;;;;;;-0.07;67.99;101718.91;10465065;28;20172;-66
2022/01/11 16:20:09;;;;;;;460.75;28.00;;;;;;;-0.26;68.41;101724.66;10464064;28;20566;-66
2022/01/11 16:25:11;;;;;;;418.27;28.63;;;;;;;-0.28;68.80;101723.78;10448844;28;20508;-66
2022/01/11 16:30:26;;;;;;;337.17;25.25;;;;;;;-0.16;68.88;101727.38;10468544;28;20138;-66
2022/01/11 16:35:30;;;;;;;691.92;37.47;;;;;;;-0.29;69.02;101734.94;10468342;28;20096;-66
2022/01/11 16:45:41;;;;;;;391.23;23.65;;;;;;;-0.36;69.54;101732.28;10468488;28;20094;-66
2022/01/11 16:50:44;;;;;;;273.95;22.40;;;;;;;-0.52;70.25;101732.03;10450472;28;20064;-66
2022/01/11 16:55:47;;;;;;;508.55;26.30;;;;;;;-0.52;69.46;101732.03;10467076;28;20060;-66
2022/01/11 17:00:50;;;;;;;683.78;30.98;;;;;;;-0.49;69.38;101750.94;10466898;28;20246;-66
2022/01/11 17:05:52;;;;;;;357.17;25.30;;;;;;;-0.53;69.54;101748.28;10467026;28;20052;-66
2022/01/11 17:10:55;;;;;;;156.77;22.77;;;;;;;-0.35;69.90;101754.56;10467131;28;20508;-66
2022/01/11 17:15:58;;;;;;;695.83;32.85;;;;;;;-0.28;69.57;101750.38;10466196;28;20574;-66
2022/01/11 17:21:00;;;;;;;233.60;23.38;;;;;;;-0.20;69.44;101763.31;10465731;28;20049;-66
2022/01/11 17:26:03;;;;;;;297.20;23.27;;;;;;;0.00;69.61;101755.00;10466991;28;20064;-66
2022/01/11 17:31:09;;;;;;;574.45;31.63;;;;;;;-0.20;69.25;101758.16;10448570;28;20060;-66
2022/01/11 17:36:13;;;;;;;135.18;23.45;;;;;;;-0.04;69.54;101765.22;10466783;28;20072;-66
2022/01/11 17:41:15;;;;;;;281.75;26.67;;;;;;;0.20;69.21;101766.38;10465906;28;20059;-66
2022/01/11 17:46:19;;;;;;;372.70;25.73;;;;;;;0.23;68.81;101763.00;10448719;28;20059;-66
2022/01/11 17:51:22;;;;;;;445.85;26.33;;;;;;;0.12;69.20;101770.59;10468405;28;20754;-66
2022/01/11 17:56:23;;;;;;;319.38;25.00;;;;;;;-0.24;69.10;101774.41;10469933;28;20135;-66
2022/01/11 18:01:25;;;;;;;211.90;22.15;;;;;;;-0.21;69.62;101769.31;10455859;28;20060;-65
2022/01/11 18:06:48;;;;;;;348.70;25.67;;;;;;;-0.12;68.96;101760.00;10472995;28;20055;-66
2022/01/11 18:11:52;;;;;;;485.92;24.83;;;;;;;-0.33;69.08;101770.88;10474165;28;20163;-65
2022/01/11 18:16:54;;;;;;;414.48;22.77;;;;;;;-0.51;69.17;101773.19;10472163;28;20669;-66
2022/01/11 18:21:56;;;;;;;391.67;24.95;;;;;;;-0.42;69.45;101783.59;10472499;28;20052;-65
2022/01/11 18:26:58;;;;;;;605.80;29.45;;;;;;;-0.55;69.23;101776.53;10474002;28;20139;-66
2022/01/11 18:32:00;;;;;;;606.92;27.83;;;;;;;-0.46;69.41;101773.25;10473799;28;20163;-66
2022/01/11 18:37:02;;;;;;;604.15;27.95;;;;;;;-0.48;69.13;101788.66;10473413;28;20123;-65
2022/01/11 18:42:04;;;;;;;409.88;21.90;;;;;;;-0.39;69.65;101782.75;10472955;28;20392;-66
2022/01/11 18:47:07;;;;;;;399.55;25.27;;;;;;;-0.14;69.39;101787.41;10473146;28;20143;-65
2022/01/11 18:52:09;;;;;;;97.28;18.30;;;;;;;0.00;69.36;101798.72;10470675;28;20491;-65
2022/01/11 18:57:11;;;;;;;476.23;27.73;;;;;;;0.00;68.56;101803.88;10471957;28;20109;-65
2022/01/11 19:02:13;;;;;;;445.35;26.38;;;;;;;-0.27;68.67;101811.25;10471702;28;20455;-65
2022/01/11 19:07:15;;;;;;;637.75;32.08;;;;;;;-0.19;68.85;101807.06;10470995;28;20568;-65
2022/01/11 19:12:17;;;;;;;398.92;22.95;;;;;;;-0.10;68.99;101809.75;10471025;28;20210;-65
2022/01/11 19:17:22;;;;;;;379.55;24.40;;;;;;;0.01;68.90;101812.47;10470977;28;20063;-65
2022/01/11 19:22:24;;;;;;;276.13;20.95;;;;;;;0.08;68.53;101815.13;10471128;28;20221;-66
2022/01/11 19:27:29;;;;;;;240.63;23.40;;;;;;;0.00;68.70;101819.31;10467495;28;20053;-65
2022/01/11 19:32:31;;;;;;;281.08;23.10;;;;;;;-0.12;69.13;101815.69;10470301;28;20060;-65
2022/01/11 19:37:33;;;;;;;357.63;23.13;;;;;;;-0.06;69.09;101823.50;10469684;28;20146;-65
2022/01/11 19:42:35;;;;;;;320.83;23.08;;;;;;;-0.27;68.96;101821.53;10466844;28;20534;-65
2022/01/11 19:47:42;;;;;;;420.33;29.77;;;;;;;-0.22;69.06;101830.16;10469729;28;20056;-65
2022/01/11 19:52:50;;;;;;;302.25;22.15;;;;;;;-0.19;69.10;101829.34;10449624;28;20079;-66
2022/01/11 19:57:52;;;;;;;319.15;21.65;;;;;;;-0.35;68.87;101834.25;10467750;28;20159;-65
2022/01/11 20:02:54;;;;;;;230.10;20.55;;;;;;;-0.43;69.45;101846.13;10469208;28;20143;-66
2022/01/11 20:07:56;;;;;;;208.55;20.95;;;;;;;-0.35;69.45;101849.66;10463739;28;20879;-65
2022/01/11 20:12:58;;;;;;;66.75;19.65;;;;;;;-0.35;69.77;101848.78;10460872;28;20048;-66
2022/01/11 20:17:59;;;;;;;114.85;18.92;;;;;;;-0.28;69.04;101855.78;10467636;28;20060;-65
2022/01/11 20:28:25;;;;;;;136.80;19.70;;;;;;;-0.50;69.24;101857.16;10468728;28;20052;-66
2022/01/11 20:33:27;;;;;;;74.60;18.00;;;;;;;-0.38;69.57;101864.19;10448987;28;20044;-66
2022/01/11 20:38:29;;;;;;;115.60;16.80;;;;;;;-0.35;69.25;101861.66;10467035;28;20435;-65
2022/01/11 20:43:31;;;;;;;245.18;22.35;;;;;;;-0.40;68.85;101871.88;10469177;28;20062;-65
2022/01/11 20:48:33;;;;;;;433.33;27.42;;;;;;;-0.44;68.89;101867.53;10469229;28;20256;-65
2022/01/11 20:53:37;;;;;;;278.05;22.52;;;;;;;-0.61;69.04;101880.94;10467949;28;20139;-66
2022/01/11 20:58:38;;;;;;;381.02;26.95;;;;;;;-0.51;69.12;101878.53;10468018;28;20653;-65
2022/01/11 21:03:43;;;;;;;449.27;25.38;;;;;;;-0.75;69.10;101873.00;10467297;28;20052;-66
2022/01/11 21:08:45;;;;;;;689.38;31.92;;;;;;;-1.03;69.28;101885.34;10450713;28;20052;-66
2022/01/11 21:13:47;;;;;;;430.58;26.83;;;;;;;-0.92;69.81;101879.53;10468152;28;20106;-66
2022/01/11 21:24:10;;;;;;;266.50;21.53;;;;;;;-0.71;69.34;101874.78;10468002;28;20063;-66
2022/01/11 21:29:12;;;;;;;131.73;21.42;;;;;;;-0.76;69.87;101880.69;10474861;28;20053;-66
2022/01/11 21:34:14;;;;;;;199.93;23.08;;;;;;;-0.62;69.77;101864.69;10474153;28;20063;-65
2022/01/11 21:39:17;;;;;;;80.18;22.23;;;;;;;-0.77;69.94;101881.53;10475579;28;20067;-66
2022/01/11 21:44:29;;;;;;;119.00;20.08;;;;;;;-0.65;69.65;101886.84;10475509;28;20080;-66
2022/01/11 21:49:33;;;;;;;133.00;19.95;;;;;;;-0.72;69.98;101888.44;10457441;28;20445;-65
2022/01/11 21:54:37;;;;;;;148.75;20.50;;;;;;;-0.62;69.68;101895.50;10475765;28;20136;-65
2022/01/11 21:59:40;;;;;;;280.05;22.85;;;;;;;-0.62;69.79;101898.09;10474729;28;20431;-65
2022/01/11 22:04:42;;;;;;;180.25;24.50;;;;;;;-0.56;69.49;101905.88;10475101;28;20071;-65
2022/01/11 22:09:44;;;;;;;274.67;21.90;;;;;;;-0.73;69.31;101920.13;10474585;28;20565;-66
2022/01/11 22:15:09;;;;;;;123.13;19.25;;;;;;;-0.69;69.69;101928.75;10456066;28;20148;-65
2022/01/11 22:20:13;;;;;;;;;;;;;;;-0.92;69.95;101918.06;10474947;28;20058;-65
2022/01/11 22:25:15;;;;;;;119.97;16.73;;;;;;;-0.76;69.56;101909.78;10474055;28;19924;-66
2022/01/11 22:30:18;;;;;;;149.27;15.65;;;;;;;-0.90;69.20;101912.97;10474050;28;20326;-65
2022/01/11 22:35:20;;;;;;;57.95;14.98;;;;;;;-0.86;69.50;101917.34;10474214;28;20096;-66
2022/01/11 22:40:22;;;;;;;275.00;18.85;;;;;;;-0.79;69.25;101926.88;10473036;28;20306;-66
2022/01/11 22:45:24;;;;;;;92.53;13.60;;;;;;;-0.90;69.29;101918.13;10467753;28;20545;-65
2022/01/11 22:50:26;;;;;;;262.58;18.10;;;;;;;-1.01;69.37;101920.47;10471489;28;20052;-66
2022/01/11 22:55:28;;;;;;;226.27;17.20;;;;;;;-0.92;69.13;101930.06;10471326;28;20056;-66